Time;durP1;ratioP1;P1;durP2;ratioP2;P2;SDS_P1;SDS_P2;PMS_P1;PMS_P2;Temp;Humidity;BMP_temperature;BMP_pressure;BME280_temperature;BME280_humidity;BME280_pressure;Samples;Min_cycle;Max_cycle;Signal;HPM_P1;HPM_P2
2023/05/08 05:00:31;;;;;;;;;15.00;15.00;;;;;16.10;77.37;101927.06;6211521;22;46408;31
2023/05/08 05:02:56;;;;;;;;;15.67;14.00;;;;;16.16;77.05;101922.22;6217815;22;45392;-58
2023/05/08 05:05:22;;;;;;;;;21.00;17.00;;;;;16.21;76.85;101932.72;6217360;22;45882;-58
2023/05/08 05:07:47;;;;;;;;;19.33;17.00;;;;;16.25;76.63;101926.22;6216392;22;67214;-58
2023/05/08 05:10:14;;;;;;;;;19.67;18.33;;;;;16.24;76.75;101929.84;6217392;22;45266;-58
2023/05/08 05:12:39;;;;;;;;;18.00;18.00;;;;;16.24;76.42;101934.38;6217040;22;45173;-58
2023/05/08 05:15:05;;;;;;;;;18.67;18.67;;;;;16.18;76.46;101936.44;6240866;22;46039;-58
2023/05/08 05:17:30;;;;;;;;;20.00;19.33;;;;;16.17;76.84;101944.59;6216690;22;45279;-58
2023/05/08 05:19:56;;;;;;;;;18.67;16.67;;;;;16.18;76.28;101946.31;6217215;22;69055;-58
2023/05/08 05:22:21;;;;;;;;;13.67;12.33;;;;;16.16;76.14;101948.22;6218469;22;45284;-56
2023/05/08 05:24:47;;;;;;;;;23.33;20.33;;;;;16.09;76.48;101950.38;6218635;22;45228;-56
2023/05/08 05:27:12;;;;;;;;;21.33;19.67;;;;;16.03;76.78;101954.28;6218681;22;45236;-56
2023/05/08 05:29:37;;;;;;;;;16.67;16.33;;;;;16.07;76.61;101975.56;6217660;22;68494;-56
2023/05/08 05:32:03;;;;;;;;;24.67;16.67;;;;;16.03;76.39;101961.44;6218008;22;59194;-56
2023/05/08 05:34:28;;;;;;;;;15.33;15.00;;;;;16.04;76.87;101972.06;6217809;22;46006;-56
2023/05/08 05:36:53;;;;;;;;;20.67;14.00;;;;;16.01;76.38;101966.88;6217525;22;67949;-56
2023/05/08 05:39:19;;;;;;;;;18.00;14.00;;;;;16.00;76.73;101965.16;6216097;22;57490;-56
2023/05/08 05:41:44;;;;;;;;;13.67;13.67;;;;;16.03;76.61;101964.13;6218995;22;45086;-56
2023/05/08 05:44:10;;;;;;;;;14.67;14.67;;;;;16.06;76.08;101971.13;6217703;22;45833;-56
2023/05/08 05:46:35;;;;;;;;;15.33;14.00;;;;;16.12;76.54;101968.13;6218182;22;45272;-56
2023/05/08 05:49:00;;;;;;;;;17.67;15.67;;;;;16.17;75.75;101968.75;6217592;22;68342;-56
2023/05/08 05:51:28;;;;;;;;;16.67;16.67;;;;;16.23;75.79;101973.78;6218484;22;45206;-56
2023/05/08 05:53:54;;;;;;;;;17.67;15.00;;;;;16.25;75.43;101966.47;6218841;22;45268;-57
2023/05/08 05:56:20;;;;;;;;;18.33;17.00;;;;;16.33;75.31;101974.13;6218211;22;45235;-57
2023/05/08 05:58:45;;;;;;;;;18.00;15.33;;;;;16.39;75.29;101979.16;6217865;22;45208;-56
2023/05/08 06:01:11;;;;;;;;;19.33;15.00;;;;;16.46;75.05;101985.03;6266149;22;68478;-56
2023/05/08 06:03:36;;;;;;;;;16.33;16.33;;;;;16.50;74.65;101989.28;6218779;22;45312;-57
2023/05/08 06:06:02;;;;;;;;;18.00;18.00;;;;;16.54;74.12;102001.56;6218341;22;45205;-56
2023/05/08 06:08:28;;;;;;;;;18.00;18.00;;;;;16.52;74.12;101998.13;6216242;22;45273;-56
2023/05/08 06:10:53;;;;;;;;;23.00;19.33;;;;;16.55;74.25;101997.94;6218553;22;45228;-56
2023/05/08 06:13:19;;;;;;;;;16.67;16.67;;;;;16.57;74.04;101996.06;6216935;22;74238;-56
2023/05/08 06:15:44;;;;;;;;;17.00;17.00;;;;;16.66;73.93;102006.25;6218173;22;45212;-56
2023/05/08 06:18:09;;;;;;;;;22.33;18.67;;;;;16.77;73.49;102005.66;6218935;22;45551;-56
2023/05/08 06:20:37;;;;;;;;;16.00;15.67;;;;;16.83;73.03;101997.25;6218922;22;45146;-56
2023/05/08 06:23:02;;;;;;;;;15.00;15.00;;;;;16.85;72.34;101997.16;6217795;22;47063;-56
2023/05/08 06:25:28;;;;;;;;;15.00;15.00;;;;;16.81;71.38;102000.97;6217436;22;67820;-56
2023/05/08 06:27:53;;;;;;;;;16.00;14.67;;;;;16.81;72.03;102012.56;6218052;22;45121;-56
2023/05/08 06:30:18;;;;;;;;;18.00;16.33;;;;;16.80;71.39;102002.78;6216997;22;67335;-56
2023/05/08 06:32:44;;;;;;;;;13.33;13.00;;;;;16.81;71.13;102004.50;6216922;22;46771;-57
2023/05/08 06:35:10;;;;;;;;;13.67;11.33;;;;;16.74;70.80;102013.91;6218376;22;45301;-56
2023/05/08 06:37:36;;;;;;;;;13.33;13.33;;;;;16.70;71.15;102013.19;6218056;22;45406;-56
2023/05/08 06:40:02;;;;;;;;;19.00;16.00;;;;;16.73;70.67;102009.47;6218463;22;45322;-56
2023/05/08 06:42:28;;;;;;;;;18.33;17.00;;;;;16.74;71.25;102007.63;6217698;22;46177;-57
2023/05/08 06:44:53;;;;;;;;;24.33;19.33;;;;;16.79;71.25;102011.81;6217802;22;45224;-56
2023/05/08 06:47:19;;;;;;;;;15.67;14.00;;;;;16.81;71.64;102015.25;6218680;22;45102;-57
2023/05/08 06:49:44;;;;;;;;;16.67;16.67;;;;;16.86;71.28;102004.25;6242153;22;45303;-57
2023/05/08 06:52:09;;;;;;;;;19.33;19.00;;;;;16.92;70.96;102012.00;6216384;22;66234;-57
2023/05/08 06:54:35;;;;;;;;;22.67;20.33;;;;;17.01;71.04;102006.09;6217683;22;68106;-57
2023/05/08 06:57:00;;;;;;;;;25.33;21.00;;;;;17.09;70.68;102005.66;6217273;22;64978;-57
2023/05/08 06:59:25;;;;;;;;;23.67;20.67;;;;;17.14;70.51;102003.56;6218675;22;45093;-57
2023/05/08 07:01:51;;;;;;;;;22.00;20.00;;;;;17.17;70.05;102010.56;6217342;22;53833;-57
2023/05/08 07:04:16;;;;;;;;;22.33;19.33;;;;;17.12;70.22;102012.66;6217463;22;64186;-57
2023/05/08 07:06:42;;;;;;;;;24.00;21.67;;;;;17.13;70.15;102014.38;6218122;22;45179;-57
2023/05/08 07:09:07;;;;;;;;;21.00;20.00;;;;;17.20;69.77;102011.25;6218157;22;45206;-57
2023/05/08 07:11:32;;;;;;;;;23.67;22.00;;;;;17.31;69.49;102021.38;6240717;22;72828;-57
2023/05/08 07:13:59;;;;;;;;;19.67;15.67;;;;;17.36;69.28;102024.66;6217673;22;45101;-57
2023/05/08 07:16:24;;;;;;;;;19.00;16.67;;;;;17.45;69.15;102027.75;6218385;22;45413;-57
2023/05/08 07:18:49;;;;;;;;;18.67;17.00;;;;;17.47;68.34;102031.19;6218654;22;45227;-57
2023/05/08 07:21:16;;;;;;;;;20.33;14.67;;;;;17.52;68.77;102029.09;6218106;22;45211;-57
2023/05/08 07:23:42;;;;;;;;;17.67;17.00;;;;;17.65;68.62;102038.19;6218065;22;45209;-57
2023/05/08 07:26:07;;;;;;;;;18.00;14.67;;;;;17.74;67.73;102033.19;6218509;22;45548;-57
2023/05/08 07:28:32;;;;;;;;;17.00;14.33;;;;;17.85;67.93;102033.41;6217055;22;67265;-57
2023/05/08 07:30:58;;;;;;;;;16.33;15.00;;;;;17.95;67.39;102037.31;6216407;22;46054;-57
2023/05/08 07:33:23;;;;;;;;;18.33;15.33;;;;;18.17;67.01;102038.63;6218268;22;47917;-57
2023/05/08 07:35:48;;;;;;;;;13.33;13.00;;;;;18.38;66.58;102043.63;6217442;22;63586;-57
2023/05/08 07:38:14;;;;;;;;;13.67;13.67;;;;;18.44;66.21;102040.56;6216842;22;68332;-57
2023/05/08 07:40:39;;;;;;;;;13.67;11.67;;;;;18.54;65.22;102041.69;6217469;22;60541;-57
2023/05/08 07:43:04;;;;;;;;;14.33;11.67;;;;;18.63;64.75;102045.59;6218011;22;45158;-57
2023/05/08 07:45:30;;;;;;;;;12.33;12.00;;;;;18.70;64.65;102038.03;6217738;22;56402;-57
2023/05/08 07:47:57;;;;;;;;;16.67;16.67;;;;;18.88;64.69;102038.63;6218108;22;48325;-57
2023/05/08 07:50:24;;;;;;;;;13.33;11.33;;;;;19.04;63.99;102041.22;6217879;22;45208;-57
2023/05/08 07:52:50;;;;;;;;;13.00;10.00;;;;;19.22;63.72;102044.53;6217568;22;45224;-57
2023/05/08 07:55:15;;;;;;;;;15.00;15.00;;;;;19.31;62.88;102046.59;6218272;22;45212;-57
2023/05/08 07:57:42;;;;;;;;;12.33;10.67;;;;;19.32;62.62;102053.69;6218077;22;45184;-57
2023/05/08 08:00:09;;;;;;;;;16.33;14.33;;;;;19.22;61.60;102050.78;6217732;22;45419;-57
2023/05/08 08:02:34;;;;;;;;;10.00;8.00;;;;;19.06;61.75;102060.84;6217077;22;45152;-57
2023/05/08 08:05:00;;;;;;;;;15.67;14.00;;;;;18.84;62.00;102062.25;6241584;22;45292;-57
2023/05/08 08:07:25;;;;;;;;;13.67;13.67;;;;;18.75;62.56;102057.44;6216717;22;65907;-57
2023/05/08 08:09:50;;;;;;;;;16.33;13.00;;;;;18.75;62.63;102057.44;6216890;22;66222;-58
2023/05/08 08:12:16;;;;;;;;;14.00;12.67;;;;;18.69;62.83;102058.69;6217059;22;61617;-57
2023/05/08 08:14:41;;;;;;;;;13.00;11.67;;;;;18.74;63.02;102061.97;6218022;22;45162;-57
2023/05/08 08:17:06;;;;;;;;;11.00;11.00;;;;;18.87;62.67;102063.88;6217016;22;65654;-57
2023/05/08 08:19:32;;;;;;;;;13.67;13.67;;;;;19.03;62.83;102070.00;6215011;22;73567;-57
2023/05/08 08:21:57;;;;;;;;;14.00;14.00;;;;;19.07;61.85;102059.88;6216797;22;66495;-57
2023/05/08 08:24:23;;;;;;;;;15.00;12.00;;;;;19.26;62.04;102057.69;6216832;22;55637;-57
2023/05/08 08:26:48;;;;;;;;;17.33;14.33;;;;;19.39;62.32;102060.44;6215796;22;45672;-57
2023/05/08 08:29:14;;;;;;;;;16.00;14.67;;;;;19.50;61.68;102065.97;6265602;22;75389;-57
2023/05/08 08:31:39;;;;;;;;;18.67;15.00;;;;;19.51;61.14;102056.88;6217834;22;45248;-57
2023/05/08 08:34:04;;;;;;;;;16.00;14.00;;;;;19.59;61.41;102061.75;6216842;22;45366;-57
2023/05/08 08:36:30;;;;;;;;;14.67;12.67;;;;;19.76;60.35;102063.28;6217828;22;45220;-57
2023/05/08 08:38:55;;;;;;;;;9.67;9.67;;;;;19.94;60.94;102063.88;6217654;22;45267;-57
2023/05/08 08:41:22;;;;;;;;;18.33;15.67;;;;;20.09;60.54;102061.94;6217216;22;50577;-57
2023/05/08 08:43:47;;;;;;;;;20.33;13.67;;;;;20.15;59.81;102058.81;6217271;22;45260;-57
2023/05/08 08:46:14;;;;;;;;;15.00;13.00;;;;;20.30;59.40;102058.69;6216304;22;67067;-57
2023/05/08 08:48:43;;;;;;;;;18.67;15.67;;;;;20.43;59.21;102055.97;6217541;22;45510;-57
2023/05/08 08:51:13;;;;;;;;;13.33;11.00;;;;;20.50;59.48;102066.22;6240483;22;45376;-57
2023/05/08 08:53:43;;;;;;;;;10.33;10.33;;;;;20.54;59.00;102068.72;6217858;22;45228;-57
2023/05/08 08:56:10;;;;;;;;;17.33;13.67;;;;;20.50;58.45;102063.50;6218310;22;45092;-57
2023/05/08 08:58:56;;;;;;;;;12.33;11.00;;;;;20.42;57.88;102065.06;6218160;22;46202;-58
2023/05/08 09:01:21;;;;;;;;;12.33;10.00;;;;;20.27;58.51;102061.59;6214574;22;45271;-57
2023/05/08 09:03:47;;;;;;;;;14.00;12.67;;;;;20.23;57.94;102068.19;6242618;22;45363;-57
2023/05/08 09:06:13;;;;;;;;;14.33;9.00;;;;;20.22;58.81;102070.06;6218107;22;46302;-57
2023/05/08 09:08:39;;;;;;;;;10.33;10.33;;;;;20.12;57.54;102077.94;6242037;22;48638;-57
2023/05/08 09:11:05;;;;;;;;;15.33;12.33;;;;;19.94;58.02;102081.94;6243037;22;45145;-57
2023/05/08 09:13:30;;;;;;;;;11.33;11.33;;;;;19.86;58.75;102085.16;6217834;22;45232;-57
2023/05/08 09:15:59;;;;;;;;;15.33;12.67;;;;;19.82;59.09;102076.41;6218377;22;51823;-57
2023/05/08 09:18:24;;;;;;;;;14.67;13.67;;;;;19.82;59.14;102079.09;6218321;22;46025;-57
2023/05/08 09:20:50;;;;;;;;;11.67;11.00;;;;;19.83;59.12;102075.44;6217716;22;64596;-57
2023/05/08 09:23:16;;;;;;;;;13.00;12.33;;;;;19.87;59.04;102080.59;6218347;22;45256;-57
2023/05/08 09:25:45;;;;;;;;;16.00;13.33;;;;;19.88;58.83;102077.81;6218625;22;45220;-57
2023/05/08 09:28:18;;;;;;;;;14.67;13.33;;;;;19.92;58.73;102075.75;6218012;22;45114;-57
2023/05/08 09:30:54;;;;;;;;;10.00;9.00;;;;;19.99;58.86;102069.81;6241996;22;45324;-57
2023/05/08 09:33:20;;;;;;;;;9.33;9.33;;;;;20.01;57.95;102072.41;6241800;22;45219;-57
2023/05/08 09:35:47;;;;;;;;;10.00;10.00;;;;;20.05;58.33;102078.47;6218232;22;45518;-58
2023/05/08 09:38:36;;;;;;;;;12.67;9.67;;;;;20.24;58.05;102065.38;6241857;22;45849;-57
2023/05/08 09:41:15;;;;;;;;;14.00;10.00;;;;;20.55;57.84;102059.63;6205682;22;45318;-58
2023/05/08 09:43:42;;;;;;;;;14.00;12.00;;;;;21.79;57.53;102054.00;6217551;22;45244;-58
2023/05/08 09:46:23;;;;;;;;;12.00;11.00;;;;;23.33;55.76;102050.69;6241992;22;45363;-58
2023/05/08 09:48:49;;;;;;;;;12.00;10.00;;;;;24.71;53.01;102042.28;6217714;22;45992;-57
2023/05/08 09:51:15;;;;;;;;;13.33;11.67;;;;;28.62;51.64;102041.91;6217234;22;45248;-58
2023/05/08 09:53:40;;;;;;;;;13.00;13.00;;;;;32.04;45.77;102049.38;6218176;22;45173;-58
2023/05/08 09:56:06;;;;;;;;;14.67;11.00;;;;;33.45;40.79;102040.88;6217307;22;69351;-58
2023/05/08 09:58:42;;;;;;;;;10.00;10.00;;;;;34.11;39.61;102042.41;6217897;22;47660;-58
2023/05/08 10:01:27;;;;;;;;;11.67;9.33;;;;;36.94;37.14;102032.97;6218222;22;45389;-58
2023/05/08 10:03:52;;;;;;;;;7.25;6.00;;;;;39.93;33.38;102030.34;6218348;22;45326;-58
2023/05/08 10:06:17;;;;;;;;;10.50;9.00;;;;;42.40;30.48;102027.25;6216936;22;68800;-59
2023/05/08 10:08:44;;;;;;;;;9.00;9.00;;;;;42.86;24.25;102021.31;6217178;22;65657;-59
2023/05/08 10:11:18;;;;;;;;;7.25;6.50;;;;;43.86;26.32;102020.63;6217229;22;45313;-59
2023/05/08 10:13:44;;;;;;;;;8.50;6.75;;;;;45.15;25.09;102032.19;6242000;22;45272;-59
2023/05/08 10:16:16;;;;;;;;;8.50;8.50;;;;;46.30;23.46;102023.13;6218195;22;45350;-59
2023/05/08 10:18:50;;;;;;;;;6.75;6.75;;;;;47.28;21.96;102021.53;6216301;22;46112;-59
2023/05/08 10:21:17;;;;;;;;;6.50;6.50;;;;;48.46;20.71;102010.75;6218011;22;45379;-59
2023/05/08 10:23:43;;;;;;;;;12.50;9.00;;;;;48.57;19.10;102017.94;6217999;22;45389;-59
2023/05/08 10:26:30;;;;;;;;;5.25;5.00;;;;;47.52;19.08;102016.78;6218917;22;45177;-59
2023/05/08 10:28:57;;;;;;;;;10.50;10.50;;;;;46.65;19.72;102006.28;6217185;22;46264;-59
2023/05/08 10:31:31;;;;;;;;;8.50;8.50;;;;;47.08;19.38;102009.31;6216452;22;45282;-59
2023/05/08 10:34:00;;;;;;;;;9.75;8.25;;;;;48.34;18.65;102000.75;6218086;22;45240;-59
2023/05/08 10:36:27;;;;;;;;;7.50;7.50;;;;;49.29;17.82;102005.38;6216802;22;45266;-59
2023/05/08 10:38:53;;;;;;;;;8.25;7.25;;;;;48.94;17.39;102004.06;6218067;22;46091;-59
2023/05/08 10:41:19;;;;;;;;;9.25;8.50;;;;;47.69;16.28;101995.72;6218434;22;45235;-59
2023/05/08 10:43:44;;;;;;;;;8.50;8.00;;;;;46.67;17.43;101995.63;6217654;22;45257;-60
2023/05/08 10:46:34;;;;;;;;;8.50;7.50;;;;;45.89;17.70;101992.41;6218473;22;45227;-59
2023/05/08 10:49:12;;;;;;;;;11.75;9.00;;;;;44.76;18.20;101997.09;6216817;22;45249;-59
2023/05/08 10:51:52;;;;;;;;;9.00;7.25;;;;;43.36;18.87;101994.84;6215935;22;45422;-59
2023/05/08 10:54:25;;;;;;;;;8.00;8.00;;;;;41.92;19.07;101996.25;6218811;22;45322;-59
2023/05/08 10:56:50;;;;;;;;;7.75;7.75;;;;;40.71;20.61;101999.34;6218150;22;45226;-59
2023/05/08 10:59:19;;;;;;;;;8.00;8.00;;;;;39.38;20.76;101993.47;6216680;22;70703;-59
2023/05/08 11:01:50;;;;;;;;;7.00;7.00;;;;;38.02;21.74;101985.69;6267612;22;45355;-61
2023/05/08 11:04:21;;;;;;;;;11.00;7.75;;;;;36.69;22.53;101983.88;6218182;22;45256;-59
2023/05/08 11:06:47;;;;;;;;;8.50;7.25;;;;;35.52;23.44;101978.34;6217460;22;45159;-59
2023/05/08 11:09:26;;;;;;;;;8.75;8.25;;;;;34.35;24.49;101970.34;6217935;22;45976;-58
2023/05/08 11:12:17;;;;;;;;;8.75;7.50;;;;;33.34;25.38;101967.00;6218022;22;45232;-58
2023/05/08 11:14:51;;;;;;;;;10.25;8.50;;;;;33.00;26.09;101960.34;6218196;22;45177;-59
2023/05/08 11:17:22;;;;;;;;;7.75;6.75;;;;;33.45;26.32;101963.69;6217788;22;45177;-58
2023/05/08 11:19:59;;;;;;;;;7.50;7.50;;;;;33.76;26.28;101956.03;6218094;22;46381;-58
2023/05/08 11:22:27;;;;;;;;;9.75;7.75;;;;;33.28;26.15;101960.41;6217936;22;45345;-58
2023/05/08 11:24:58;;;;;;;;;10.00;10.00;;;;;32.61;26.79;101950.63;6217771;22;45192;-58
2023/05/08 11:27:49;;;;;;;;;9.50;8.75;;;;;32.24;26.99;101960.78;6218282;22;45191;-58
2023/05/08 11:30:21;;;;;;;;;10.00;8.00;;;;;31.79;27.56;101958.06;6216458;22;45363;-58
2023/05/08 11:33:02;;;;;;;;;9.00;8.00;;;;;31.38;28.44;101948.34;6217908;22;45373;-58
2023/05/08 11:35:50;;;;;;;;;10.33;8.67;;;;;30.96;28.34;101936.00;6241919;22;45261;-59
2023/05/08 11:38:18;;;;;;;;;9.50;9.25;;;;;30.78;28.68;101939.94;6217499;22;45402;-58
2023/05/08 11:40:54;;;;;;;;;8.25;8.00;;;;;30.48;29.30;101930.69;6218066;22;45950;-58
2023/05/08 11:43:46;;;;;;;;;9.25;8.00;;;;;29.99;29.48;101934.56;6218013;22;45290;-58
2023/05/08 11:46:15;;;;;;;;;11.00;8.75;;;;;29.84;30.18;101924.31;6205654;22;45291;-58
2023/05/08 11:48:40;;;;;;;;;12.75;9.75;;;;;29.82;30.24;101920.88;6218253;22;45185;-59
2023/05/08 11:51:06;;;;;;;;;14.00;10.00;;;;;29.74;30.69;101914.56;6241265;22;47122;-58
2023/05/08 11:53:32;;;;;;;;;11.00;9.25;;;;;29.64;30.94;101904.66;6217876;22;45203;-58
2023/05/08 11:55:58;;;;;;;;;8.75;7.00;;;;;30.23;31.21;101891.56;6241415;22;50323;-58
2023/05/08 11:58:24;;;;;;;;;11.25;9.75;;;;;30.91;29.84;101891.75;6217493;22;45256;-58
2023/05/08 12:00:49;;;;;;;;;9.33;9.33;;;;;30.83;29.95;101888.06;6217465;22;45137;-58
2023/05/08 12:03:19;;;;;;;;;10.50;8.00;;;;;30.85;30.26;101887.88;6217780;22;54070;-58
2023/05/08 12:05:45;;;;;;;;;13.00;11.67;;;;;31.09;30.15;101892.28;6217876;22;45284;-58
2023/05/08 12:08:12;;;;;;;;;9.33;9.33;;;;;30.96;30.14;101884.69;6241361;22;45190;-58
2023/05/08 12:10:50;;;;;;;;;9.67;9.67;;;;;30.88;29.96;101884.75;6216282;22;45285;-58
2023/05/08 12:13:19;;;;;;;;;9.33;9.00;;;;;31.79;29.77;101881.91;6190197;22;45202;-58
2023/05/08 12:15:46;;;;;;;;;9.00;7.50;;;;;33.30;28.86;101881.09;6217826;22;45292;-58
2023/05/08 12:18:11;;;;;;;;;8.50;8.25;;;;;33.49;27.44;101875.91;6217820;22;45401;-58
2023/05/08 12:20:37;;;;;;;;;8.50;6.50;;;;;32.86;27.95;101871.22;6216923;22;45920;-58
2023/05/08 12:23:02;;;;;;;;;7.25;7.25;;;;;32.15;28.84;101863.69;6217256;22;45372;-58
2023/05/08 12:25:28;;;;;;;;;6.25;6.25;;;;;31.67;28.84;101862.31;6218173;22;45275;-58
2023/05/08 12:27:53;;;;;;;;;7.00;7.00;;;;;31.22;29.50;101866.94;6217231;22;45223;-58
2023/05/08 12:30:19;;;;;;;;;8.50;7.25;;;;;30.91;30.38;101867.03;6215420;22;45321;-58
2023/05/08 12:32:45;;;;;;;;;9.50;7.50;;;;;30.81;30.25;101856.34;6215206;22;70597;-58
2023/05/08 12:35:11;;;;;;;;;8.25;7.25;;;;;30.80;30.46;101858.22;6218020;22;45182;-58
2023/05/08 12:37:37;;;;;;;;;7.25;5.00;;;;;30.78;30.83;101853.94;6241137;22;45316;-58
2023/05/08 12:40:03;;;;;;;;;4.25;4.25;;;;;30.72;29.98;101858.31;6217104;22;46086;-58
2023/05/08 12:42:41;;;;;;;;;5.00;5.00;;;;;30.49;30.00;101858.31;6217339;22;45168;-58
2023/05/08 12:45:07;;;;;;;;;6.75;6.75;;;;;30.33;30.51;101848.28;6216453;22;45250;-58
2023/05/08 12:47:33;;;;;;;;;4.75;4.75;;;;;30.28;30.65;101846.09;6217367;22;45249;-58
2023/05/08 12:49:58;;;;;;;;;6.50;4.75;;;;;30.15;30.77;101851.31;6215021;22;75079;-58
2023/05/08 12:52:23;;;;;;;;;3.00;3.00;;;;;30.17;31.11;101849.28;6216335;22;70601;-58
2023/05/08 12:54:49;;;;;;;;;6.50;5.50;;;;;30.18;30.55;101835.38;6218071;22;45236;-58
2023/05/08 12:57:16;;;;;;;;;5.25;5.00;;;;;30.15;31.26;101845.84;6217911;22;45154;-58
2023/05/08 12:59:42;;;;;;;;;7.75;5.25;;;;;30.02;30.65;101850.06;6217192;22;46124;-58
2023/05/08 13:02:34;;;;;;;;;4.00;4.00;;;;;29.73;31.36;101838.88;6216450;22;45363;-58
2023/05/08 13:05:02;;;;;;;;;6.75;6.75;;;;;29.64;31.94;101844.38;6212506;22;45189;-58
2023/05/08 13:07:31;;;;;;;;;5.00;5.00;;;;;29.67;31.43;101848.63;6216680;22;45174;-58
2023/05/08 13:10:03;;;;;;;;;6.00;6.00;;;;;29.60;31.54;101858.63;6216858;22;46099;-58
2023/05/08 13:12:28;;;;;;;;;6.50;6.50;;;;;29.53;32.11;101853.84;6216898;22;45146;-58
2023/05/08 13:14:54;;;;;;;;;4.75;4.75;;;;;29.48;32.30;101855.41;6217710;22;45243;-58
2023/05/08 13:17:19;;;;;;;;;6.00;6.00;;;;;29.51;32.20;101858.63;6217305;22;45445;-58
2023/05/08 13:19:44;;;;;;;;;6.25;4.75;;;;;29.60;32.36;101864.09;6216003;22;72317;-58
2023/05/08 13:22:10;;;;;;;;;4.25;4.25;;;;;29.65;32.47;101873.50;6215946;22;72247;-58
2023/05/08 13:24:35;;;;;;;;;5.00;5.00;;;;;29.73;32.66;101871.75;6216202;22;69302;-58
2023/05/08 13:27:00;;;;;;;;;6.50;5.75;;;;;29.72;31.92;101865.41;6216042;22;69007;-58
2023/05/08 13:29:26;;;;;;;;;4.25;2.75;;;;;29.48;32.14;101859.00;6217325;22;46334;-58
2023/05/08 13:31:51;;;;;;;;;4.75;4.75;;;;;29.10;32.69;101860.59;6217102;22;45193;-58
2023/05/08 13:34:16;;;;;;;;;4.25;4.25;;;;;28.66;33.14;101853.66;6241912;22;45275;-58
2023/05/08 13:36:42;;;;;;;;;6.50;5.50;;;;;28.46;33.34;101855.81;6216770;22;45646;-58
2023/05/08 13:39:07;;;;;;;;;4.00;4.00;;;;;28.23;33.62;101857.31;6215858;22;72748;-58
2023/05/08 13:41:32;;;;;;;;;5.50;4.50;;;;;28.09;34.19;101863.44;6216829;22;45261;-58
2023/05/08 13:43:58;;;;;;;;;3.50;3.50;;;;;28.00;34.26;101870.75;6217896;22;54292;-58
2023/05/08 13:46:23;;;;;;;;;4.25;4.25;;;;;27.82;34.27;101859.94;6217798;22;66896;-58
2023/05/08 13:48:49;;;;;;;;;3.00;3.00;;;;;27.66;34.40;101851.66;6218381;22;45927;-58
2023/05/08 13:51:14;;;;;;;;;4.00;4.00;;;;;27.46;34.85;101856.53;6242031;22;45398;-58
2023/05/08 13:53:39;;;;;;;;;3.50;3.50;;;;;27.28;35.13;101851.09;6216831;22;61923;-58
2023/05/08 13:56:05;;;;;;;;;3.00;3.00;;;;;27.18;35.19;101843.91;6242079;22;56177;-58
2023/05/08 13:58:30;;;;;;;;;4.25;4.25;;;;;27.31;35.47;101837.13;6216838;22;45613;-58
2023/05/08 14:00:56;;;;;;;;;3.25;3.25;;;;;27.63;34.73;101830.16;6217221;22;60872;-58
2023/05/08 14:03:21;;;;;;;;;4.00;4.00;;;;;27.99;34.64;101838.09;6217567;22;68246;-58
2023/05/08 14:05:46;;;;;;;;;2.00;2.00;;;;;28.43;34.13;101837.00;6217237;22;68893;-58
2023/05/08 14:08:11;;;;;;;;;4.00;4.00;;;;;28.67;33.80;101830.72;6216971;22;74963;-58
2023/05/08 14:10:37;;;;;;;;;2.50;2.00;;;;;28.84;33.85;101835.16;6218551;22;45161;-58
2023/05/08 14:13:03;;;;;;;;;2.00;2.00;;;;;29.02;33.47;101834.97;6216667;22;45436;-58
2023/05/08 14:15:28;;;;;;;;;5.00;3.50;;;;;29.10;33.25;101842.31;6241467;22;67950;-58
2023/05/08 14:17:53;;;;;;;;;4.00;4.00;;;;;29.01;33.17;101835.97;6218069;22;46081;-58
2023/05/08 14:20:19;;;;;;;;;6.00;4.00;;;;;28.91;33.42;101837.22;6217186;22;71295;-58
2023/05/08 14:22:44;;;;;;;;;4.00;4.00;;;;;28.67;33.24;101834.31;6216991;22;45281;-58
2023/05/08 14:25:10;;;;;;;;;3.50;3.50;;;;;28.51;33.86;101828.81;6217969;22;53469;-58
2023/05/08 14:27:35;;;;;;;;;3.25;3.25;;;;;28.29;33.38;101833.06;6218263;22;45255;-58
2023/05/08 14:30:00;;;;;;;;;3.75;3.25;;;;;28.06;33.74;101823.63;6217560;22;45280;-58
2023/05/08 14:32:26;;;;;;;;;3.50;3.50;;;;;27.92;34.59;101823.41;6218316;22;46372;-58
2023/05/08 14:34:51;;;;;;;;;3.00;3.00;;;;;27.88;34.38;101814.66;6241609;22;65035;-58
2023/05/08 14:37:16;;;;;;;;;3.50;3.50;;;;;27.77;34.78;101815.84;6215855;22;48852;-58
2023/05/08 14:39:42;;;;;;;;;3.00;3.00;;;;;27.69;35.08;101810.34;6217755;22;45401;-58
2023/05/08 14:42:07;;;;;;;;;4.75;3.75;;;;;27.63;35.26;101800.94;6218133;22;45248;-58
2023/05/08 14:44:33;;;;;;;;;5.50;5.50;;;;;27.61;34.69;101804.84;6240591;22;69568;-58
2023/05/08 14:46:58;;;;;;;;;4.50;4.00;;;;;27.51;35.05;101797.66;6218348;22;45947;-58
2023/05/08 14:49:23;;;;;;;;;5.00;3.50;;;;;27.39;35.46;101802.56;6217030;22;67451;-58
2023/05/08 14:51:49;;;;;;;;;2.75;2.75;;;;;27.32;35.40;101809.63;6217879;22;45229;-58
2023/05/08 14:54:14;;;;;;;;;3.00;3.00;;;;;27.18;36.01;101813.84;6218072;22;45200;-58
2023/05/08 14:56:39;;;;;;;;;4.00;4.00;;;;;27.19;35.53;101810.09;6216354;22;45905;-58
2023/05/08 14:59:05;;;;;;;;;3.50;3.50;;;;;27.18;36.09;101811.13;6218260;22;45289;-58
2023/05/08 15:01:30;;;;;;;;;3.50;3.50;;;;;27.26;35.63;101814.91;6266446;22;60144;-58
2023/05/08 15:03:55;;;;;;;;;5.75;4.25;;;;;27.16;36.19;101815.88;6217941;22;45152;-58
2023/05/08 15:06:22;;;;;;;;;4.00;2.50;;;;;27.07;36.53;101820.44;6217522;22;45976;-58
2023/05/08 15:08:48;;;;;;;;;6.00;4.75;;;;;26.91;36.47;101814.88;6217817;22;45177;-58
2023/05/08 15:11:14;;;;;;;;;5.50;4.75;;;;;26.78;36.59;101817.16;6218463;22;45109;-61
2023/05/08 15:13:39;;;;;;;;;6.00;4.00;;;;;26.67;36.88;101816.38;6216537;22;45479;-58
2023/05/08 15:16:05;;;;;;;;;5.00;4.50;;;;;26.60;37.30;101800.81;6217090;22;69929;-58
2023/05/08 15:18:30;;;;;;;;;4.00;2.75;;;;;26.56;37.41;101795.66;6216945;22;62704;-58
2023/05/08 15:20:57;;;;;;;;;3.00;3.00;;;;;26.49;37.30;101791.88;6217005;22;61704;-58
2023/05/08 15:23:22;;;;;;;;;7.25;5.00;;;;;26.52;37.21;101791.53;6267734;22;45320;-58
2023/05/08 15:25:48;;;;;;;;;4.50;3.50;;;;;26.53;37.28;101786.94;6216888;22;74482;-58
2023/05/08 15:28:13;;;;;;;;;4.00;4.00;;;;;26.53;37.43;101801.44;6267261;22;45681;-58
2023/05/08 15:30:39;;;;;;;;;3.00;3.00;;;;;26.59;37.27;101808.13;6217679;22;45310;-58
2023/05/08 15:33:04;;;;;;;;;4.25;4.25;;;;;26.63;36.90;101797.75;6218077;22;45449;-58
2023/05/08 15:35:29;;;;;;;;;4.00;4.00;;;;;26.56;36.68;101801.09;6241105;22;60053;-58
2023/05/08 15:37:55;;;;;;;;;4.00;3.50;;;;;26.40;37.48;101792.81;6216985;22;65705;-58
2023/05/08 15:40:20;;;;;;;;;3.25;3.00;;;;;26.37;37.38;101804.91;6218027;22;45245;-58
2023/05/08 15:42:45;;;;;;;;;4.50;4.50;;;;;26.23;37.69;101787.22;6217171;22;62033;-58
2023/05/08 15:45:11;;;;;;;;;3.50;3.00;;;;;26.19;38.30;101794.00;6266339;22;71876;-58
2023/05/08 15:47:36;;;;;;;;;5.00;3.75;;;;;26.14;38.56;101785.41;6217127;22;67948;-58
2023/05/08 15:50:01;;;;;;;;;4.25;4.25;;;;;26.03;38.70;101791.06;6216690;22;45236;-58
2023/05/08 15:52:27;;;;;;;;;4.00;4.00;;;;;25.96;38.60;101784.50;6217606;22;45470;-58
2023/05/08 15:54:52;;;;;;;;;3.00;3.00;;;;;25.97;38.46;101784.38;6215740;22;46093;-58
2023/05/08 15:57:18;;;;;;;;;7.00;5.00;;;;;25.93;38.73;101775.63;6215422;22;45177;-58
2023/05/08 15:59:43;;;;;;;;;4.50;4.50;;;;;25.92;38.68;101783.97;6216665;22;62239;-58
2023/05/08 16:02:08;;;;;;;;;3.00;3.00;;;;;25.93;38.82;101781.09;6217264;22;54633;-58
2023/05/08 16:04:34;;;;;;;;;0.00;0.00;;;;;25.92;38.87;101786.69;6217977;22;45217;-58
2023/05/08 16:06:59;;;;;;;;;3.00;3.00;;;;;25.88;38.69;101794.31;6216994;22;45331;-58
2023/05/08 16:09:25;;;;;;;;;3.00;3.00;;;;;25.92;39.25;101794.88;6217331;22;54680;-58
2023/05/08 16:11:51;;;;;;;;;0.50;0.50;;;;;26.05;39.38;101791.81;6217781;22;45274;-58
2023/05/08 16:14:16;;;;;;;;;4.25;4.25;;;;;26.06;39.30;101793.50;6216373;22;72974;-58
2023/05/08 16:16:42;;;;;;;;;4.75;3.50;;;;;26.04;39.24;101796.38;6241193;22;45333;-58